createdAt,value
2023-10-18T00:00:59.413Z,7.56
2023-10-18T00:04:02.095Z,7.60
2023-10-18T00:07:04.685Z,7.45
2023-10-18T00:10:09.610Z,7.37
2023-10-18T00:13:13.260Z,7.34
2023-10-18T00:16:15.673Z,7.19
2023-10-18T00:19:18.474Z,7.17
2023-10-18T00:22:20.783Z,7.07
2023-10-18T00:25:23.293Z,7.08
2023-10-18T00:28:25.621Z,7.07
2023-10-18T00:31:28.617Z,7.07
2023-10-18T00:34:31.118Z,7.00
2023-10-18T00:37:33.374Z,6.95
2023-10-18T00:40:37.017Z,6.87
2023-10-18T00:43:45.515Z,6.86
2023-10-18T00:46:52.072Z,6.86
2023-10-18T00:49:54.589Z,6.86
2023-10-18T00:52:56.852Z,6.81
2023-10-18T00:56:05.871Z,6.75
2023-10-18T00:59:28.162Z,6.64
2023-10-18T01:02:30.958Z,6.62
2023-10-18T01:05:34.193Z,6.58
2023-10-18T01:08:39.830Z,6.55
2023-10-18T01:11:42.942Z,6.48
2023-10-18T01:14:46.065Z,6.48
2023-10-18T01:17:49.275Z,6.53
2023-10-18T01:20:51.871Z,6.56
2023-10-18T01:23:56.872Z,6.54
2023-10-18T01:27:00.013Z,6.52
2023-10-18T01:30:02.845Z,6.39
2023-10-18T01:33:05.945Z,6.32
2023-10-18T01:36:13.029Z,6.14
2023-10-18T01:39:22.015Z,6.17
2023-10-18T01:42:26.445Z,6.19
2023-10-18T01:45:36.452Z,6.30
2023-10-18T01:48:41.565Z,6.21
2023-10-18T01:51:48.793Z,6.15
2023-10-18T01:54:53.585Z,6.16
2023-10-18T01:57:55.965Z,6.18
2023-10-18T02:00:58.699Z,6.05
2023-10-18T02:04:04.004Z,5.99
2023-10-18T02:07:08.548Z,6.05
2023-10-18T02:10:12.561Z,6.03
2023-10-18T02:13:15.315Z,5.99
2023-10-18T02:16:20.686Z,6.00
2023-10-18T02:19:23.689Z,6.04
2023-10-18T02:22:28.674Z,5.91
2023-10-18T02:25:47.415Z,5.90
2023-10-18T02:28:50.134Z,5.79
2023-10-18T02:31:54.093Z,5.70
2023-10-18T02:34:56.375Z,5.67
2023-10-18T02:37:58.704Z,5.63
2023-10-18T02:41:05.403Z,5.64
2023-10-18T02:44:17.051Z,5.58
2023-10-18T02:47:23.675Z,5.53
2023-10-18T02:50:25.952Z,5.53
2023-10-18T02:53:28.189Z,5.54
2023-10-18T02:56:38.548Z,5.52
2023-10-18T02:59:42.333Z,5.56
2023-10-18T03:02:45.675Z,5.54
2023-10-18T03:05:48.415Z,5.51
2023-10-18T03:08:50.951Z,5.45
2023-10-18T03:11:55.236Z,5.43
2023-10-18T03:14:58.176Z,5.27
2023-10-18T03:18:01.659Z,5.35
2023-10-18T03:21:08.089Z,5.23
2023-10-18T03:24:13.614Z,5.20
2023-10-18T03:27:16.117Z,5.24
2023-10-18T03:30:19.735Z,5.17
2023-10-18T03:33:21.935Z,5.18
2023-10-18T03:36:27.268Z,5.13
2023-10-18T03:39:29.957Z,5.11
2023-10-18T03:42:32.664Z,5.12
2023-10-18T03:45:59.049Z,5.09
2023-10-18T03:49:03.094Z,4.94
2023-10-18T03:52:15.560Z,4.85
2023-10-18T03:55:18.833Z,4.90
2023-10-18T03:58:24.250Z,4.98
2023-10-18T04:01:28.169Z,5.08
2023-10-18T04:04:35.915Z,5.07
2023-10-18T04:07:39.557Z,5.04
2023-10-18T04:10:42.453Z,5.09
2023-10-18T04:13:45.544Z,5.11
2023-10-18T04:16:55.268Z,5.02
2023-10-18T04:19:57.575Z,4.98
2023-10-18T04:23:01.210Z,4.92
2023-10-18T04:26:05.055Z,4.90
2023-10-18T04:29:11.944Z,4.92
2023-10-18T04:32:20.647Z,4.88
2023-10-18T04:35:34.440Z,4.90
2023-10-18T04:38:48.466Z,4.95
2023-10-18T04:41:50.795Z,4.92
2023-10-18T04:44:57.328Z,4.93
2023-10-18T04:48:07.334Z,4.92
2023-10-18T04:51:17.478Z,4.87
2023-10-18T04:54:29.043Z,4.84
2023-10-18T04:57:35.648Z,4.90
2023-10-18T05:00:53.688Z,5.09
2023-10-18T05:04:00.275Z,5.09
2023-10-18T05:07:12.423Z,5.21
2023-10-18T05:10:15.655Z,5.31
2023-10-18T05:13:23.275Z,5.46
2023-10-18T05:16:28.201Z,5.62
2023-10-18T05:19:38.685Z,5.75
2023-10-18T05:22:42.932Z,5.78
2023-10-18T05:25:48.060Z,5.75
2023-10-18T05:28:51.085Z,5.71
2023-10-18T05:32:13.733Z,5.76
2023-10-18T05:35:28.632Z,5.73
2023-10-18T05:38:49.644Z,5.67
2023-10-18T05:41:52.794Z,5.68
2023-10-18T05:44:55.213Z,5.73
2023-10-18T05:48:13.528Z,5.77
2023-10-18T05:51:37.532Z,5.73
2023-10-18T05:54:40.685Z,5.84
2023-10-18T05:57:46.430Z,5.88
2023-10-18T06:00:49.761Z,5.90
2023-10-18T06:03:52.676Z,6.00
2023-10-18T06:06:59.951Z,6.07
2023-10-18T06:10:10.631Z,6.16
2023-10-18T06:13:22.159Z,6.24
2023-10-18T06:16:30.798Z,6.40
2023-10-18T06:19:34.609Z,6.56
2023-10-18T06:22:45.082Z,6.72
2023-10-18T06:25:50.469Z,6.89
2023-10-18T06:28:54.481Z,7.03
2023-10-18T06:31:57.689Z,7.21
2023-10-18T06:35:00.325Z,7.36
2023-10-18T06:38:09.720Z,7.54
2023-10-18T06:41:20.859Z,7.82
2023-10-18T06:44:31.635Z,12.65
2023-10-18T06:47:45.332Z,18.32
2023-10-18T06:50:47.835Z,21.06
2023-10-18T06:53:51.652Z,22.29
2023-10-18T06:56:55.576Z,21.43
2023-10-18T06:59:57.885Z,19.42
2023-10-18T07:03:03.078Z,24.81
2023-10-18T07:06:06.649Z,27.55
2023-10-18T07:09:25.988Z,28.00
2023-10-18T07:12:28.989Z,27.57
2023-10-18T07:15:35.512Z,22.79
2023-10-18T07:18:37.792Z,25.56
2023-10-18T07:21:42.157Z,28.86
2023-10-18T07:24:48.349Z,28.94
2023-10-18T07:27:51.327Z,28.38
2023-10-18T07:30:56.608Z,23.38
2023-10-18T07:34:04.195Z,26.29
2023-10-18T07:37:26.933Z,29.27
2023-10-18T07:40:35.116Z,29.67
2023-10-18T07:43:37.433Z,23.60
2023-10-18T07:46:42.862Z,21.53
2023-10-18T07:49:46.545Z,24.70
2023-10-18T07:52:48.842Z,26.88
2023-10-18T07:55:58.320Z,27.74
2023-10-18T07:59:21.846Z,29.18
2023-10-18T08:02:28.296Z,29.66
2023-10-18T08:05:44.606Z,29.00
2023-10-18T08:08:48.285Z,26.93
2023-10-18T08:11:51.943Z,24.91
2023-10-18T08:14:55.936Z,23.03
2023-10-18T08:18:01.909Z,22.42
2023-10-18T08:21:08.222Z,21.74
2023-10-18T08:24:20.478Z,21.43
2023-10-18T08:27:22.770Z,20.63
2023-10-18T08:30:25.293Z,20.14
2023-10-18T08:33:27.945Z,19.67
2023-10-18T08:36:32.893Z,19.44
2023-10-18T08:39:42.762Z,19.39
2023-10-18T08:42:52.351Z,19.46
2023-10-18T08:45:54.690Z,19.24
2023-10-18T08:48:58.116Z,19.14
2023-10-18T08:52:10.041Z,19.09
2023-10-18T08:55:23.939Z,18.96
2023-10-18T08:58:29.427Z,18.84
2023-10-18T09:01:36.059Z,18.71
2023-10-18T09:04:38.743Z,18.68
2023-10-18T09:07:44.567Z,18.58
2023-10-18T09:10:55.953Z,18.50
2023-10-18T09:14:13.556Z,18.18
2023-10-18T09:17:22.814Z,18.16
2023-10-18T09:20:29.072Z,17.81
2023-10-18T09:23:32.258Z,17.81
2023-10-18T09:26:41.770Z,17.52
2023-10-18T09:29:44.803Z,17.45
2023-10-18T09:32:48.157Z,17.48
2023-10-18T09:35:50.609Z,17.49
2023-10-18T09:38:55.161Z,17.10
2023-10-18T09:42:00.818Z,17.10
2023-10-18T09:45:04.151Z,16.84
2023-10-18T09:48:09.689Z,16.83
2023-10-18T09:51:16.279Z,16.78
2023-10-18T09:54:22.867Z,16.85
2023-10-18T09:57:25.749Z,16.92
2023-10-18T10:00:31.293Z,16.91
2023-10-18T10:03:36.478Z,16.70
2023-10-18T10:06:46.529Z,16.56
2023-10-18T10:09:49.266Z,16.48
2023-10-18T10:12:59.121Z,16.25
2023-10-18T10:16:04.557Z,16.17
2023-10-18T10:19:12.476Z,16.11
2023-10-18T10:22:17.267Z,16.08
2023-10-18T10:25:32.785Z,15.87
2023-10-18T10:29:05.897Z,15.57
2023-10-18T10:32:08.636Z,15.33
2023-10-18T10:35:19.057Z,15.22
2023-10-18T10:38:27.646Z,15.15
2023-10-18T10:41:33.220Z,15.26
2023-10-18T10:45:32.633Z,15.27
2023-10-18T10:48:38.422Z,15.27
2023-10-18T10:51:50.977Z,15.31
2023-10-18T10:55:03.173Z,15.14
2023-10-18T10:58:17.622Z,14.94
2023-10-18T11:01:33.079Z,14.92
2023-10-18T11:04:53.872Z,14.87
2023-10-18T11:08:02.282Z,14.85
2023-10-18T11:11:07.813Z,14.66
2023-10-18T11:14:10.191Z,14.49
2023-10-18T11:17:15.618Z,14.34
2023-10-18T11:20:21.055Z,14.31
2023-10-18T11:23:27.275Z,14.30
2023-10-18T11:26:29.962Z,14.44
2023-10-18T11:29:32.224Z,14.60
2023-10-18T11:32:34.766Z,14.64
2023-10-18T11:35:39.994Z,14.73
2023-10-18T11:39:02.237Z,14.42
2023-10-18T11:42:09.704Z,14.33
2023-10-18T11:45:24.415Z,14.30
2023-10-18T11:48:33.994Z,14.42
2023-10-18T11:51:45.253Z,14.56
2023-10-18T11:54:48.830Z,14.72
2023-10-18T11:57:51.513Z,14.73
2023-10-18T12:01:07.961Z,14.72
2023-10-18T12:04:10.951Z,14.91
2023-10-18T12:07:15.503Z,14.99
2023-10-18T12:10:21.900Z,14.96
2023-10-18T12:13:25.551Z,14.88
2023-10-18T12:16:28.004Z,14.92
2023-10-18T12:19:33.913Z,14.87
2023-10-18T12:22:37.484Z,14.95
2023-10-18T12:25:43.964Z,14.99
2023-10-18T12:28:50.444Z,14.97
2023-10-18T12:31:54.461Z,14.95
2023-10-18T12:34:57.958Z,14.86
2023-10-18T12:38:00.294Z,14.83
2023-10-18T12:41:19.163Z,14.87
2023-10-18T12:44:26.368Z,14.77
2023-10-18T12:47:29.608Z,14.71
2023-10-18T12:50:32.041Z,14.67
2023-10-18T12:53:43.690Z,14.63
2023-10-18T12:57:18.976Z,14.56
2023-10-18T13:00:27.213Z,14.67
2023-10-18T13:03:35.350Z,14.60
2023-10-18T13:06:43.738Z,14.46
2023-10-18T13:09:46.267Z,14.46
2023-10-18T13:13:06.127Z,14.51
2023-10-18T13:16:14.750Z,14.56
2023-10-18T13:19:17.198Z,14.56
2023-10-18T13:22:19.642Z,14.64
2023-10-18T13:25:38.448Z,14.71
2023-10-18T13:28:52.444Z,14.88
2023-10-18T13:32:07.924Z,14.83
2023-10-18T13:35:16.465Z,14.80
2023-10-18T13:38:20.780Z,14.72
2023-10-18T13:41:23.219Z,14.60
2023-10-18T13:44:26.650Z,14.62
2023-10-18T13:47:29.159Z,14.60
2023-10-18T13:50:39.276Z,14.52
2023-10-18T13:53:43.090Z,14.65
2023-10-18T13:56:45.572Z,14.66
2023-10-18T13:59:47.871Z,14.70
2023-10-18T14:02:50.346Z,14.66
2023-10-18T14:05:53.469Z,14.65
2023-10-18T14:08:56.255Z,14.63
2023-10-18T14:12:02.191Z,14.48
2023-10-18T14:15:04.916Z,14.45
2023-10-18T14:18:07.663Z,14.44
2023-10-18T14:21:15.911Z,14.47
2023-10-18T14:24:26.182Z,14.47
2023-10-18T14:27:30.172Z,14.42
2023-10-18T14:30:35.343Z,14.39
2023-10-18T14:33:38.139Z,14.40
2023-10-18T14:36:42.343Z,14.41
2023-10-18T14:39:45.594Z,14.39
2023-10-18T14:42:47.884Z,14.34
2023-10-18T14:45:50.212Z,14.37
2023-10-18T14:48:54.368Z,14.31
2023-10-18T14:51:57.265Z,14.22
2023-10-18T14:55:03.030Z,14.27
2023-10-18T14:58:06.320Z,14.22
2023-10-18T15:01:13.405Z,14.27
2023-10-18T15:04:15.800Z,14.25
2023-10-18T15:07:18.261Z,14.21
2023-10-18T15:10:20.658Z,14.20
2023-10-18T15:13:22.938Z,14.16
2023-10-18T15:16:26.722Z,14.10
2023-10-18T15:19:29.421Z,14.09
2023-10-18T15:22:34.934Z,14.06
2023-10-18T15:25:37.233Z,14.01
2023-10-18T15:28:40.827Z,13.95
2023-10-18T15:31:43.192Z,13.89
2023-10-18T15:34:47.085Z,13.92
2023-10-18T15:37:49.523Z,13.94
2023-10-18T15:40:51.830Z,13.95
2023-10-18T15:43:57.125Z,13.83
2023-10-18T15:47:01.357Z,13.84
2023-10-18T15:50:07.797Z,13.86
2023-10-18T15:53:12.797Z,13.88
2023-10-18T15:56:15.578Z,13.80
2023-10-18T15:59:18.585Z,13.80
2023-10-18T16:02:21.246Z,13.77
2023-10-18T16:05:29.788Z,13.76
2023-10-18T16:08:32.650Z,13.75
2023-10-18T16:11:35.050Z,13.73
2023-10-18T16:14:37.673Z,13.72
2023-10-18T16:17:40.155Z,13.68
2023-10-18T16:20:42.632Z,13.65
2023-10-18T16:23:51.474Z,13.62
2023-10-18T16:26:53.861Z,13.57
2023-10-18T16:29:56.227Z,13.56
2023-10-18T16:32:58.650Z,13.51
2023-10-18T16:36:02.855Z,13.51
2023-10-18T16:39:06.391Z,13.47
2023-10-18T16:42:10.203Z,13.42
2023-10-18T16:45:13.422Z,13.40
2023-10-18T16:48:15.745Z,13.37
2023-10-18T16:51:18.472Z,13.30
2023-10-18T16:54:20.814Z,13.27
2023-10-18T16:57:23.197Z,13.27
2023-10-18T17:00:26.038Z,13.16
2023-10-18T17:03:31.267Z,13.15
2023-10-18T17:06:34.588Z,13.11
2023-10-18T17:09:37.208Z,13.05
2023-10-18T17:12:40.957Z,13.02
2023-10-18T17:15:43.242Z,13.02
2023-10-18T17:18:51.040Z,12.97
2023-10-18T17:21:53.413Z,12.95
2023-10-18T17:25:02.137Z,12.89
2023-10-18T17:28:08.988Z,12.87
2023-10-18T17:31:13.156Z,12.86
2023-10-18T17:34:15.767Z,12.86
2023-10-18T17:37:18.102Z,12.77
2023-10-18T17:40:21.506Z,12.81
2023-10-18T17:43:26.083Z,12.73
2023-10-18T17:46:28.747Z,12.72
2023-10-18T17:49:31.509Z,12.70
2023-10-18T17:52:34.007Z,12.64
2023-10-18T17:55:36.313Z,12.65
2023-10-18T17:58:39.190Z,12.60
2023-10-18T18:01:46.378Z,12.58
2023-10-18T18:04:54.460Z,12.51
2023-10-18T18:07:56.808Z,12.47
2023-10-18T18:10:59.198Z,12.38
2023-10-18T18:14:01.572Z,12.29
2023-10-18T18:17:08.525Z,12.24
2023-10-18T18:20:16.048Z,12.26
2023-10-18T18:23:20.749Z,12.20
2023-10-18T18:26:26.765Z,12.18
2023-10-18T18:29:32.824Z,12.20
2023-10-18T18:32:36.830Z,12.18
2023-10-18T18:35:40.377Z,12.12
2023-10-18T18:38:45.515Z,12.15
2023-10-18T18:41:49.948Z,12.17
2023-10-18T18:44:52.259Z,12.05
2023-10-18T18:47:54.686Z,12.00
2023-10-18T18:50:59.984Z,12.04
2023-10-18T18:54:06.513Z,12.05
2023-10-18T18:57:09.229Z,12.04
2023-10-18T19:00:17.209Z,11.97
2023-10-18T19:03:19.580Z,11.97
2023-10-18T19:06:22.067Z,11.95
2023-10-18T19:09:24.454Z,11.92
2023-10-18T19:12:27.623Z,11.92
2023-10-18T19:15:30.524Z,11.85
2023-10-18T19:18:33.916Z,11.84
2023-10-18T19:21:37.225Z,11.80
2023-10-18T19:24:40.812Z,11.82
2023-10-18T19:27:44.126Z,11.81
2023-10-18T19:30:46.919Z,11.84
2023-10-18T19:33:50.396Z,11.87
2023-10-18T19:37:00.980Z,11.84
2023-10-18T19:40:06.916Z,11.81
2023-10-18T19:43:09.280Z,11.82
2023-10-18T19:46:12.230Z,11.76
2023-10-18T19:49:14.646Z,11.75
2023-10-18T19:52:16.972Z,11.72
2023-10-18T19:55:19.223Z,11.64
2023-10-18T19:58:21.488Z,11.65
2023-10-18T20:01:23.812Z,11.63
2023-10-18T20:04:29.103Z,11.71
2023-10-18T20:07:31.470Z,11.63
2023-10-18T20:10:34.356Z,11.65
2023-10-18T20:13:37.171Z,11.60
2023-10-18T20:16:39.558Z,11.49
2023-10-18T20:19:41.987Z,11.40
2023-10-18T20:22:46.676Z,11.38
2023-10-18T20:25:57.816Z,11.34
2023-10-18T20:29:00.424Z,11.37
2023-10-18T20:32:04.059Z,11.32
2023-10-18T20:35:08.848Z,11.25
2023-10-18T20:38:13.582Z,11.27
2023-10-18T20:41:17.206Z,11.24
2023-10-18T20:44:20.435Z,11.22
2023-10-18T20:47:29.179Z,11.23
2023-10-18T20:50:37.315Z,11.20
2023-10-18T20:53:41.912Z,11.22
2023-10-18T20:56:48.217Z,11.18
2023-10-18T20:59:53.723Z,11.17
2023-10-18T21:02:56.586Z,11.13
2023-10-18T21:05:59.982Z,11.10
2023-10-18T21:09:02.732Z,11.07
2023-10-18T21:12:07.837Z,11.02
2023-10-18T21:15:12.445Z,10.93
2023-10-18T21:18:15.233Z,10.84
2023-10-18T21:21:18.667Z,10.77
2023-10-18T21:24:21.129Z,10.71
2023-10-18T21:27:23.404Z,10.59
2023-10-18T21:30:27.268Z,10.48
2023-10-18T21:33:29.751Z,10.41
2023-10-18T21:36:33.106Z,10.42
2023-10-18T21:39:35.911Z,10.38
2023-10-18T21:42:41.484Z,10.44
2023-10-18T21:45:43.722Z,10.47
2023-10-18T21:48:46.246Z,10.55
2023-10-18T21:51:48.512Z,10.45
2023-10-18T21:54:51.222Z,10.37
2023-10-18T21:57:53.534Z,10.29
2023-10-18T22:01:03.810Z,10.36
2023-10-18T22:04:08.486Z,10.41
2023-10-18T22:07:16.341Z,10.55
2023-10-18T22:10:23.436Z,10.55
2023-10-18T22:13:32.004Z,10.60
2023-10-18T22:16:36.970Z,10.65
2023-10-18T22:19:39.340Z,10.66
2023-10-18T22:22:42.063Z,10.66
2023-10-18T22:25:56.276Z,10.81
2023-10-18T22:29:10.577Z,10.78
2023-10-18T22:35:18.740Z,10.83
2023-10-18T22:38:21.910Z,10.91
2023-10-18T22:41:33.542Z,10.92
2023-10-18T22:44:42.461Z,10.90
2023-10-18T22:47:45.501Z,10.99
2023-10-18T22:50:55.917Z,10.90
2023-10-18T22:54:04.517Z,10.89
2023-10-18T22:57:19.130Z,10.87
2023-10-18T23:00:32.882Z,10.84
2023-10-18T23:03:37.471Z,10.82
2023-10-18T23:06:41.098Z,10.90
2023-10-18T23:09:46.229Z,10.95
2023-10-18T23:12:48.500Z,10.94
2023-10-18T23:15:57.501Z,10.95
2023-10-18T23:19:00.403Z,10.98
2023-10-18T23:22:15.723Z,10.96
2023-10-18T23:25:36.902Z,11.00
2023-10-18T23:28:47.186Z,11.05
2023-10-18T23:32:19.050Z,11.06
2023-10-18T23:35:27.959Z,11.07
2023-10-18T23:38:39.650Z,11.10
2023-10-18T23:41:49.611Z,11.14
2023-10-18T23:44:54.460Z,11.13
2023-10-18T23:48:25.720Z,11.18
2023-10-18T23:51:34.863Z,11.11
2023-10-18T23:54:37.655Z,11.11
2023-10-18T23:57:40.362Z,11.11
